sensor_id;sensor_type;location;lat;lon;timestamp;pressure;altitude;pressure_sealevel;temperature;humidity
46412;BME280;32113;42.012;24.870;2024-02-28T00:01:59;99473.84;;;11.62;60.36
46412;BME280;32113;42.012;24.870;2024-02-28T00:04:25;99472.16;;;11.58;60.92
46412;BME280;32113;42.012;24.870;2024-02-28T00:06:50;99477.28;;;11.58;61.18
46412;BME280;32113;42.012;24.870;2024-02-28T00:09:15;99480.72;;;11.62;60.52
46412;BME280;32113;42.012;24.870;2024-02-28T00:11:45;99482.47;;;11.55;61.19
46412;BME280;32113;42.012;24.870;2024-02-28T00:14:12;99472.25;;;11.44;61.24
46412;BME280;32113;42.012;24.870;2024-02-28T00:16:41;99471.44;;;11.39;61.40
46412;BME280;32113;42.012;24.870;2024-02-28T00:19:07;99479.09;;;11.43;61.54
46412;BME280;32113;42.012;24.870;2024-02-28T00:21:32;99486.81;;;11.42;61.84
46412;BME280;32113;42.012;24.870;2024-02-28T00:23:57;99485.94;;;11.44;61.49
46412;BME280;32113;42.012;24.870;2024-02-28T00:26:23;99487.66;;;11.47;61.29
46412;BME280;32113;42.012;24.870;2024-02-28T00:28:48;99494.53;;;11.42;61.34
46412;BME280;32113;42.012;24.870;2024-02-28T00:31:14;99499.69;;;11.40;60.66
46412;BME280;32113;42.012;24.870;2024-02-28T00:33:39;99498.91;;;11.29;61.14
46412;BME280;32113;42.012;24.870;2024-02-28T00:36:04;99498.94;;;11.23;61.26
46412;BME280;32113;42.012;24.870;2024-02-28T00:38:30;99501.50;;;11.23;61.08
46412;BME280;32113;42.012;24.870;2024-02-28T00:40:55;99505.78;;;11.21;61.44
46412;BME280;32113;42.012;24.870;2024-02-28T00:43:20;99500.66;;;11.22;60.97
46412;BME280;32113;42.012;24.870;2024-02-28T00:45:46;99495.50;;;11.25;61.03
46412;BME280;32113;42.012;24.870;2024-02-28T00:48:11;99497.25;;;11.20;61.50
46412;BME280;32113;42.012;24.870;2024-02-28T00:50:37;99499.81;;;11.15;60.88
46412;BME280;32113;42.012;24.870;2024-02-28T00:53:02;99499.00;;;11.10;61.63
46412;BME280;32113;42.012;24.870;2024-02-28T00:55:28;99494.75;;;11.08;61.60
46412;BME280;32113;42.012;24.870;2024-02-28T00:57:53;99496.44;;;11.12;61.49
46412;BME280;32113;42.012;24.870;2024-02-28T01:00:19;99500.75;;;11.07;61.50
46412;BME280;32113;42.012;24.870;2024-02-28T01:02:44;99503.28;;;11.11;61.31
46412;BME280;32113;42.012;24.870;2024-02-28T01:05:10;99512.72;;;11.11;61.16
46412;BME280;32113;42.012;24.870;2024-02-28T01:07:35;99512.75;;;10.98;61.03
46412;BME280;32113;42.012;24.870;2024-02-28T01:10:01;99505.91;;;10.99;61.33
46412;BME280;32113;42.012;24.870;2024-02-28T01:12:26;99509.38;;;10.90;61.92
46412;BME280;32113;42.012;24.870;2024-02-28T01:14:52;99512.78;;;10.90;61.69
46412;BME280;32113;42.012;24.870;2024-02-28T01:17:17;99511.97;;;10.82;61.79
46412;BME280;32113;42.012;24.870;2024-02-28T01:19:42;99516.31;;;10.71;62.70
46412;BME280;32113;42.012;24.870;2024-02-28T01:22:08;99515.47;;;10.66;62.92
46412;BME280;32113;42.012;24.870;2024-02-28T01:24:34;99516.31;;;10.66;62.96
46412;BME280;32113;42.012;24.870;2024-02-28T01:27:00;99513.75;;;10.64;63.38
46412;BME280;32113;42.012;24.870;2024-02-28T01:29:25;99515.47;;;10.67;62.66
46412;BME280;32113;42.012;24.870;2024-02-28T01:31:50;99515.44;;;10.70;62.25
46412;BME280;32113;42.012;24.870;2024-02-28T01:34:16;99514.56;;;10.74;62.31
46412;BME280;32113;42.012;24.870;2024-02-28T01:36:42;99512.00;;;10.79;62.33
46412;BME280;32113;42.012;24.870;2024-02-28T01:39:07;99504.31;;;10.71;61.93
46412;BME280;32113;42.012;24.870;2024-02-28T01:41:33;99508.59;;;10.66;62.51
46412;BME280;32113;42.012;24.870;2024-02-28T01:43:58;99504.34;;;10.70;62.37
46412;BME280;32113;42.012;24.870;2024-02-28T01:46:26;99510.31;;;10.72;62.05
46412;BME280;32113;42.012;24.870;2024-02-28T01:48:53;99507.72;;;10.69;62.23
46412;BME280;32113;42.012;24.870;2024-02-28T01:51:19;99512.03;;;10.65;62.49
46412;BME280;32113;42.012;24.870;2024-02-28T01:53:45;99522.31;;;10.59;63.00
46412;BME280;32113;42.012;24.870;2024-02-28T01:56:12;99511.19;;;10.57;63.06
46412;BME280;32113;42.012;24.870;2024-02-28T01:58:39;99520.63;;;10.53;62.83
46412;BME280;32113;42.012;24.870;2024-02-28T02:01:05;99525.75;;;10.55;63.48
46412;BME280;32113;42.012;24.870;2024-02-28T02:03:32;99518.91;;;10.54;62.93
46412;BME280;32113;42.012;24.870;2024-02-28T02:06:01;99512.91;;;10.59;62.21
46412;BME280;32113;42.012;24.870;2024-02-28T02:08:26;99515.47;;;10.66;62.54
46412;BME280;32113;42.012;24.870;2024-02-28T02:10:52;99516.31;;;10.66;62.34
46412;BME280;32113;42.012;24.870;2024-02-28T02:13:17;99524.88;;;10.65;62.84
46412;BME280;32113;42.012;24.870;2024-02-28T02:15:43;99518.88;;;10.69;62.05
46412;BME280;32113;42.012;24.870;2024-02-28T02:18:08;99529.13;;;10.68;62.23
46412;BME280;32113;42.012;24.870;2024-02-28T02:20:38;99531.69;;;10.66;62.05
46412;BME280;32113;42.012;24.870;2024-02-28T02:23:08;99524.00;;;10.68;61.91
46412;BME280;32113;42.012;24.870;2024-02-28T02:25:33;99532.56;;;10.62;62.22
46412;BME280;32113;42.012;24.870;2024-02-28T02:27:59;99542.00;;;10.55;62.38
46412;BME280;32113;42.012;24.870;2024-02-28T02:30:24;99542.84;;;10.52;62.56
46412;BME280;32113;42.012;24.870;2024-02-28T02:32:50;99547.13;;;10.58;62.47
46412;BME280;32113;42.012;24.870;2024-02-28T02:35:15;99547.13;;;10.47;62.75
46412;BME280;32113;42.012;24.870;2024-02-28T02:37:44;99552.28;;;10.50;62.58
46412;BME280;32113;42.012;24.870;2024-02-28T02:40:11;99550.56;;;10.49;62.58
46412;BME280;32113;42.012;24.870;2024-02-28T02:42:37;99554.00;;;10.47;62.38
46412;BME280;32113;42.012;24.870;2024-02-28T02:45:03;99556.53;;;10.39;62.28
46412;BME280;32113;42.012;24.870;2024-02-28T02:47:28;99560.81;;;10.34;62.51
46412;BME280;32113;42.012;24.870;2024-02-28T02:49:55;99563.38;;;10.28;62.77
46412;BME280;32113;42.012;24.870;2024-02-28T02:52:21;99569.38;;;10.30;63.02
46412;BME280;32113;42.012;24.870;2024-02-28T02:54:46;99573.66;;;10.29;63.05
46412;BME280;32113;42.012;24.870;2024-02-28T02:57:11;99568.53;;;10.31;62.79
46412;BME280;32113;42.012;24.870;2024-02-28T02:59:37;99571.94;;;10.28;62.82
46412;BME280;32113;42.012;24.870;2024-02-28T03:02:02;99578.75;;;10.26;62.93
46412;BME280;32113;42.012;24.870;2024-02-28T03:04:28;99577.06;;;10.31;63.12
46412;BME280;32113;42.012;24.870;2024-02-28T03:06:54;99581.34;;;10.38;62.57
46412;BME280;32113;42.012;24.870;2024-02-28T03:09:19;99577.06;;;10.36;62.48
46412;BME280;32113;42.012;24.870;2024-02-28T03:11:44;99572.81;;;10.36;62.61
46412;BME280;32113;42.012;24.870;2024-02-28T03:14:10;99574.50;;;10.37;62.38
46412;BME280;32113;42.012;24.870;2024-02-28T03:16:35;99576.22;;;10.32;62.75
46412;BME280;32113;42.012;24.870;2024-02-28T03:19:03;99571.06;;;10.28;62.53
46412;BME280;32113;42.012;24.870;2024-02-28T03:21:28;99578.78;;;10.18;63.28
46412;BME280;32113;42.012;24.870;2024-02-28T03:23:53;99577.06;;;10.22;62.84
46412;BME280;32113;42.012;24.870;2024-02-28T03:26:19;99576.22;;;10.21;63.15
46412;BME280;32113;42.012;24.870;2024-02-28T03:28:44;99575.34;;;10.22;62.84
46412;BME280;32113;42.012;24.870;2024-02-28T03:31:09;99573.66;;;10.15;63.06
46412;BME280;32113;42.012;24.870;2024-02-28T03:33:35;99571.94;;;10.14;62.90
46412;BME280;32113;42.012;24.870;2024-02-28T03:36:01;99575.38;;;10.18;63.20
46412;BME280;32113;42.012;24.870;2024-02-28T03:38:27;99570.25;;;10.16;63.07
46412;BME280;32113;42.012;24.870;2024-02-28T03:40:52;99586.47;;;10.07;63.23
46412;BME280;32113;42.012;24.870;2024-02-28T03:43:17;99580.50;;;9.88;63.40
46412;BME280;32113;42.012;24.870;2024-02-28T03:45:43;99576.19;;;9.89;63.55
46412;BME280;32113;42.012;24.870;2024-02-28T03:48:08;99580.47;;;9.82;63.73
46412;BME280;32113;42.012;24.870;2024-02-28T03:50:34;99577.91;;;9.71;64.24
46412;BME280;32113;42.012;24.870;2024-02-28T03:52:59;99577.88;;;9.66;64.49
46412;BME280;32113;42.012;24.870;2024-02-28T03:55:24;99571.91;;;9.66;65.00
46412;BME280;32113;42.012;24.870;2024-02-28T03:57:50;99571.91;;;9.72;64.72
46412;BME280;32113;42.012;24.870;2024-02-28T04:00:17;99569.34;;;9.70;64.85
46412;BME280;32113;42.012;24.870;2024-02-28T04:02:42;99571.06;;;9.73;64.87
46412;BME280;32113;42.012;24.870;2024-02-28T04:05:08;99576.19;;;9.81;64.69
46412;BME280;32113;42.012;24.870;2024-02-28T04:07:33;99570.22;;;9.82;64.39
46412;BME280;32113;42.012;24.870;2024-02-28T04:09:59;99573.63;;;9.75;64.62
46412;BME280;32113;42.012;24.870;2024-02-28T04:12:24;99577.91;;;9.80;64.05
46412;BME280;32113;42.012;24.870;2024-02-28T04:14:49;99582.19;;;9.86;64.25
46412;BME280;32113;42.012;24.870;2024-02-28T04:17:15;99587.31;;;9.86;64.51
46412;BME280;32113;42.012;24.870;2024-02-28T04:19:40;99585.59;;;9.85;63.66
46412;BME280;32113;42.012;24.870;2024-02-28T04:22:06;99583.88;;;9.82;63.90
46412;BME280;32113;42.012;24.870;2024-02-28T04:24:31;99592.41;;;9.77;63.76
46412;BME280;32113;42.012;24.870;2024-02-28T04:26:58;99586.41;;;9.70;63.91
46412;BME280;32113;42.012;24.870;2024-02-28T04:29:25;99589.00;;;9.68;64.32
46412;BME280;32113;42.012;24.870;2024-02-28T04:31:50;99587.28;;;9.72;64.34
46412;BME280;32113;42.012;24.870;2024-02-28T04:34:16;99594.13;;;9.75;64.23
46412;BME280;32113;42.012;24.870;2024-02-28T04:36:41;99586.44;;;9.73;64.24
46412;BME280;32113;42.012;24.870;2024-02-28T04:39:06;99589.88;;;9.75;64.17
46412;BME280;32113;42.012;24.870;2024-02-28T04:41:33;99582.19;;;9.73;64.37
46412;BME280;32113;42.012;24.870;2024-02-28T04:43:59;99582.16;;;9.72;64.35
46412;BME280;32113;42.012;24.870;2024-02-28T04:46:24;99592.44;;;9.80;64.07
46412;BME280;32113;42.012;24.870;2024-02-28T04:48:50;99588.13;;;9.74;64.58
46412;BME280;32113;42.012;24.870;2024-02-28T04:51:16;99599.28;;;9.78;64.51
46412;BME280;32113;42.012;24.870;2024-02-28T04:53:43;99597.53;;;9.77;64.14
46412;BME280;32113;42.012;24.870;2024-02-28T04:56:08;99595.84;;;9.77;63.93
46412;BME280;32113;42.012;24.870;2024-02-28T04:58:35;99604.41;;;9.78;63.84
46412;BME280;32113;42.012;24.870;2024-02-28T05:01:01;99609.50;;;9.75;63.88
46412;BME280;32113;42.012;24.870;2024-02-28T05:03:26;99600.97;;;9.77;64.13
46412;BME280;32113;42.012;24.870;2024-02-28T05:05:52;99600.97;;;9.79;64.31
46412;BME280;32113;42.012;24.870;2024-02-28T05:08:19;99605.25;;;9.81;64.44
46412;BME280;32113;42.012;24.870;2024-02-28T05:10:45;99606.09;;;9.83;64.07
46412;BME280;32113;42.012;24.870;2024-02-28T05:13:10;99612.06;;;9.81;64.18
46412;BME280;32113;42.012;24.870;2024-02-28T05:15:36;99611.22;;;9.80;63.98
46412;BME280;32113;42.012;24.870;2024-02-28T05:18:01;99608.66;;;9.79;64.19
46412;BME280;32113;42.012;24.870;2024-02-28T05:20:27;99618.06;;;9.86;63.97
46412;BME280;32113;42.012;24.870;2024-02-28T05:22:52;99612.06;;;9.89;63.89
46412;BME280;32113;42.012;24.870;2024-02-28T05:25:18;99618.09;;;9.84;64.26
46412;BME280;32113;42.012;24.870;2024-02-28T05:27:43;99618.06;;;9.83;64.18
46412;BME280;32113;42.012;24.870;2024-02-28T05:30:09;99624.91;;;9.90;64.12
46412;BME280;32113;42.012;24.870;2024-02-28T05:32:35;99627.47;;;9.84;64.41
46412;BME280;32113;42.012;24.870;2024-02-28T05:35:00;99619.78;;;9.87;64.61
46412;BME280;32113;42.012;24.870;2024-02-28T05:37:26;99627.50;;;9.95;64.60
46412;BME280;32113;42.012;24.870;2024-02-28T05:39:51;99627.47;;;9.98;64.56
46412;BME280;32113;42.012;24.870;2024-02-28T05:42:17;99624.94;;;9.96;64.06
46412;BME280;32113;42.012;24.870;2024-02-28T05:44:50;99627.47;;;9.99;63.92
46412;BME280;32113;42.012;24.870;2024-02-28T05:47:15;99630.03;;;9.99;63.87
46412;BME280;32113;42.012;24.870;2024-02-28T05:49:41;99630.06;;;9.96;64.11
46412;BME280;32113;42.012;24.870;2024-02-28T05:52:06;99645.44;;;10.01;63.89
46412;BME280;32113;42.012;24.870;2024-02-28T05:54:32;99647.13;;;10.02;63.49
46412;BME280;32113;42.012;24.870;2024-02-28T05:57:00;99647.16;;;10.04;62.97
46412;BME280;32113;42.012;24.870;2024-02-28T05:59:25;99662.53;;;9.97;62.90
46412;BME280;32113;42.012;24.870;2024-02-28T06:01:51;99661.63;;;9.88;63.78
46412;BME280;32113;42.012;24.870;2024-02-28T06:04:17;99671.03;;;9.85;63.83
46412;BME280;32113;42.012;24.870;2024-02-28T06:06:42;99664.22;;;9.92;63.49
46412;BME280;32113;42.012;24.870;2024-02-28T06:09:08;99667.63;;;9.94;63.65
46412;BME280;32113;42.012;24.870;2024-02-28T06:11:33;99676.19;;;9.92;63.98
46412;BME280;32113;42.012;24.870;2024-02-28T06:13:59;99678.75;;;9.93;64.50
46412;BME280;32113;42.012;24.870;2024-02-28T06:16:24;99683.00;;;9.91;64.64
46412;BME280;32113;42.012;24.870;2024-02-28T06:18:50;99682.16;;;9.94;64.51
46412;BME280;32113;42.012;24.870;2024-02-28T06:21:15;99686.47;;;9.96;64.68
46412;BME280;32113;42.012;24.870;2024-02-28T06:23:41;99685.56;;;9.88;65.08
46412;BME280;32113;42.012;24.870;2024-02-28T06:26:06;99679.59;;;9.94;65.16
46412;BME280;32113;42.012;24.870;2024-02-28T06:28:32;99682.16;;;9.95;65.10
46412;BME280;32113;42.012;24.870;2024-02-28T06:30:57;99693.28;;;9.97;64.92
46412;BME280;32113;42.012;24.870;2024-02-28T06:33:23;99693.31;;;10.07;64.95
46412;BME280;32113;42.012;24.870;2024-02-28T06:35:49;99694.19;;;10.15;64.87
46412;BME280;32113;42.012;24.870;2024-02-28T06:38:14;99689.03;;;10.17;64.92
46412;BME280;32113;42.012;24.870;2024-02-28T06:40:40;99687.34;;;10.20;64.70
46412;BME280;32113;42.012;24.870;2024-02-28T06:43:06;99686.50;;;10.28;64.59
46412;BME280;32113;42.012;24.870;2024-02-28T06:45:31;99686.50;;;10.31;64.66
46412;BME280;32113;42.012;24.870;2024-02-28T06:47:57;99689.06;;;10.34;64.36
46412;BME280;32113;42.012;24.870;2024-02-28T06:50:23;99685.66;;;10.41;64.50
46412;BME280;32113;42.012;24.870;2024-02-28T06:52:48;99689.97;;;10.44;64.47
46412;BME280;32113;42.012;24.870;2024-02-28T06:55:14;99700.25;;;10.48;63.87
46412;BME280;32113;42.012;24.870;2024-02-28T06:57:42;99701.09;;;10.54;64.39
46412;BME280;32113;42.012;24.870;2024-02-28T07:00:09;99702.78;;;10.59;64.19
46412;BME280;32113;42.012;24.870;2024-02-28T07:02:36;99707.06;;;10.63;63.65
46412;BME280;32113;42.012;24.870;2024-02-28T07:05:03;99700.25;;;10.66;63.60
46412;BME280;32113;42.012;24.870;2024-02-28T07:07:33;99698.50;;;10.66;63.68
46412;BME280;32113;42.012;24.870;2024-02-28T07:09:58;99708.78;;;10.72;62.97
46412;BME280;32113;42.012;24.870;2024-02-28T07:12:24;99711.34;;;10.80;63.21
46412;BME280;32113;42.012;24.870;2024-02-28T07:14:52;99713.06;;;10.81;62.80
46412;BME280;32113;42.012;24.870;2024-02-28T07:17:17;99714.78;;;10.79;62.90
46412;BME280;32113;42.012;24.870;2024-02-28T07:19:43;99712.19;;;10.82;63.28
46412;BME280;32113;42.012;24.870;2024-02-28T07:22:09;99721.63;;;10.72;63.74
46412;BME280;32113;42.012;24.870;2024-02-28T07:24:34;99713.94;;;10.72;63.44
46412;BME280;32113;42.012;24.870;2024-02-28T07:26:59;99710.50;;;10.76;63.54
46412;BME280;32113;42.012;24.870;2024-02-28T07:29:25;99713.06;;;10.84;63.65
46412;BME280;32113;42.012;24.870;2024-02-28T07:31:51;99719.03;;;10.94;63.17
46412;BME280;32113;42.012;24.870;2024-02-28T07:34:16;99711.31;;;10.97;63.64
46412;BME280;32113;42.012;24.870;2024-02-28T07:36:41;99712.16;;;11.02;63.00
46412;BME280;32113;42.012;24.870;2024-02-28T07:39:07;99714.75;;;11.07;63.49
46412;BME280;32113;42.012;24.870;2024-02-28T07:41:34;99706.16;;;11.13;63.27
46412;BME280;32113;42.012;24.870;2024-02-28T07:43:59;99711.28;;;11.14;63.15
46412;BME280;32113;42.012;24.870;2024-02-28T07:46:25;99710.41;;;11.23;62.92
46412;BME280;32113;42.012;24.870;2024-02-28T07:48:51;99707.84;;;11.26;63.61
46412;BME280;32113;42.012;24.870;2024-02-28T07:51:17;99701.84;;;11.32;63.02
46412;BME280;32113;42.012;24.870;2024-02-28T07:53:42;99707.81;;;11.40;62.33
46412;BME280;32113;42.012;24.870;2024-02-28T07:56:15;99714.63;;;11.52;62.68
46412;BME280;32113;42.012;24.870;2024-02-28T07:58:41;99705.22;;;11.48;62.74
46412;BME280;32113;42.012;24.870;2024-02-28T08:01:06;99705.19;;;11.54;62.79
46412;BME280;32113;42.012;24.870;2024-02-28T08:03:33;99707.75;;;11.57;62.79
46412;BME280;32113;42.012;24.870;2024-02-28T08:05:58;99698.31;;;11.63;63.25
46412;BME280;32113;42.012;24.870;2024-02-28T08:08:23;99695.69;;;11.70;62.69
46412;BME280;32113;42.012;24.870;2024-02-28T08:10:49;99701.66;;;11.80;62.69
46412;BME280;32113;42.012;24.870;2024-02-28T08:13:17;99695.59;;;11.86;63.32
46412;BME280;32113;42.012;24.870;2024-02-28T08:15:42;99695.59;;;11.89;63.82
46412;BME280;32113;42.012;24.870;2024-02-28T08:18:07;99702.41;;;12.00;63.12
46412;BME280;32113;42.012;24.870;2024-02-28T08:20:33;99691.25;;;12.08;62.44
46412;BME280;32113;42.012;24.870;2024-02-28T08:22:58;99695.47;;;12.16;61.78
46412;BME280;32113;42.012;24.870;2024-02-28T08:25:25;99690.31;;;12.19;62.55
46412;BME280;32113;42.012;24.870;2024-02-28T08:27:50;99686.81;;;12.31;62.15
46412;BME280;32113;42.012;24.870;2024-02-28T08:30:16;99685.88;;;12.40;61.59
46412;BME280;32113;42.012;24.870;2024-02-28T08:32:41;99683.16;;;12.58;60.92
46412;BME280;32113;42.012;24.870;2024-02-28T08:35:08;99687.31;;;12.73;60.06
46412;BME280;32113;42.012;24.870;2024-02-28T08:37:33;99687.25;;;12.83;59.77
46412;BME280;32113;42.012;24.870;2024-02-28T08:39:59;99682.00;;;12.91;59.66
46412;BME280;32113;42.012;24.870;2024-02-28T08:42:25;99674.19;;;13.01;59.39
46412;BME280;32113;42.012;24.870;2024-02-28T08:44:52;99675.69;;;13.18;59.06
46412;BME280;32113;42.012;24.870;2024-02-28T08:47:17;99668.47;;;13.51;66.71
46412;BME280;32113;42.012;24.870;2024-02-28T08:49:44;99675.06;;;13.73;67.98
46412;BME280;32113;42.012;24.870;2024-02-28T08:52:09;99680.63;;;14.08;67.59
46412;BME280;32113;42.012;24.870;2024-02-28T08:54:34;99672.72;;;14.20;61.74
46412;BME280;32113;42.012;24.870;2024-02-28T08:57:00;99673.97;;;14.48;62.64
46412;BME280;32113;42.012;24.870;2024-02-28T08:59:25;99670.28;;;14.64;59.56
46412;BME280;32113;42.012;24.870;2024-02-28T09:01:51;99671.44;;;14.98;60.08
46412;BME280;32113;42.012;24.870;2024-02-28T09:04:16;99672.94;;;15.10;57.29
46412;BME280;32113;42.012;24.870;2024-02-28T09:06:41;99674.38;;;15.23;54.21
46412;BME280;32113;42.012;24.870;2024-02-28T09:09:07;99676.59;;;15.42;56.93
46412;BME280;32113;42.012;24.870;2024-02-28T09:11:32;99671.06;;;15.61;53.34
46412;BME280;32113;42.012;24.870;2024-02-28T09:13:59;99666.34;;;15.80;52.43
46412;BME280;32113;42.012;24.870;2024-02-28T09:16:24;99657.41;;;15.97;53.74
46412;BME280;32113;42.012;24.870;2024-02-28T09:18:49;99664.34;;;16.31;52.29
46412;BME280;32113;42.012;24.870;2024-02-28T09:21:15;99660.63;;;16.43;49.95
46412;BME280;32113;42.012;24.870;2024-02-28T09:23:40;99664.41;;;16.64;48.99
46412;BME280;32113;42.012;24.870;2024-02-28T09:26:06;99671.66;;;16.85;48.53
46412;BME280;32113;42.012;24.870;2024-02-28T09:28:32;99665.59;;;16.86;47.12
46412;BME280;32113;42.012;24.870;2024-02-28T09:30:58;99660.81;;;17.03;47.17
46412;BME280;32113;42.012;24.870;2024-02-28T09:33:23;99655.13;;;17.22;47.22
46412;BME280;32113;42.012;24.870;2024-02-28T09:35:49;99640.78;;;17.40;46.73
46412;BME280;32113;42.012;24.870;2024-02-28T09:38:14;99647.28;;;17.55;47.17
46412;BME280;32113;42.012;24.870;2024-02-28T09:40:40;99638.31;;;17.66;48.07
46412;BME280;32113;42.012;24.870;2024-02-28T09:43:11;99641.75;;;17.95;45.75
46412;BME280;32113;42.012;24.870;2024-02-28T09:45:39;99639.16;;;17.95;45.08
46412;BME280;32113;42.012;24.870;2024-02-28T09:48:07;99634.25;;;17.85;45.24
46412;BME280;32113;42.012;24.870;2024-02-28T09:50:32;99629.66;;;17.94;44.88
46412;BME280;32113;42.012;24.870;2024-02-28T09:52:58;99631.59;;;18.16;44.85
46412;BME280;32113;42.012;24.870;2024-02-28T09:55:23;99632.06;;;18.29;44.50
46412;BME280;32113;42.012;24.870;2024-02-28T09:57:50;99627.03;;;18.49;43.49
46412;BME280;32113;42.012;24.870;2024-02-28T10:00:19;99621.63;;;18.56;43.61
46412;BME280;32113;42.012;24.870;2024-02-28T10:02:47;99617.75;;;18.68;43.02
46412;BME280;32113;42.012;24.870;2024-02-28T10:05:14;99612.44;;;18.71;42.88
46412;BME280;32113;42.012;24.870;2024-02-28T10:07:40;99617.31;;;18.80;42.33
46412;BME280;32113;42.012;24.870;2024-02-28T10:10:06;99604.81;;;18.91;42.49
46412;BME280;32113;42.012;24.870;2024-02-28T10:12:33;99613.56;;;18.89;43.20
46412;BME280;32113;42.012;24.870;2024-02-28T10:15:00;99607.03;;;18.77;42.77
46412;BME280;32113;42.012;24.870;2024-02-28T10:17:25;99613.00;;;18.55;42.80
46412;BME280;32113;42.012;24.870;2024-02-28T10:19:52;99604.31;;;18.29;44.27
46412;BME280;32113;42.012;24.870;2024-02-28T10:22:17;99600.25;;;18.22;43.58
46412;BME280;32113;42.012;24.870;2024-02-28T10:24:43;99593.38;;;18.21;43.22
46412;BME280;32113;42.012;24.870;2024-02-28T10:27:08;99592.50;;;18.20;43.40
46412;BME280;32113;42.012;24.870;2024-02-28T10:29:34;99591.72;;;18.18;43.22
46412;BME280;32113;42.012;24.870;2024-02-28T10:31:59;99586.94;;;18.04;43.49
46412;BME280;32113;42.012;24.870;2024-02-28T10:34:25;99587.94;;;18.00;43.85
46412;BME280;32113;42.012;24.870;2024-02-28T10:36:51;99579.53;;;17.92;43.76
46412;BME280;32113;42.012;24.870;2024-02-28T10:39:17;99582.53;;;17.51;44.16
46412;BME280;32113;42.012;24.870;2024-02-28T10:41:44;99575.75;;;17.46;44.76
46412;BME280;32113;42.012;24.870;2024-02-28T10:44:12;99567.84;;;17.51;45.47
46412;BME280;32113;42.012;24.870;2024-02-28T10:46:39;99570.50;;;17.48;45.28
46412;BME280;32113;42.012;24.870;2024-02-28T10:49:05;99563.00;;;17.39;45.24
46412;BME280;32113;42.012;24.870;2024-02-28T10:51:34;99560.66;;;17.59;45.03
46412;BME280;32113;42.012;24.870;2024-02-28T10:54:12;99553.63;;;17.63;44.15
46412;BME280;32113;42.012;24.870;2024-02-28T10:56:38;99546.38;;;17.73;44.13
46412;BME280;32113;42.012;24.870;2024-02-28T10:59:06;99545.84;;;17.63;44.45
46412;BME280;32113;42.012;24.870;2024-02-28T11:01:36;99543.09;;;17.68;44.38
46412;BME280;32113;42.012;24.870;2024-02-28T11:04:03;99546.47;;;17.71;45.72
46412;BME280;32113;42.012;24.870;2024-02-28T11:06:29;99545.97;;;17.87;44.37
46412;BME280;32113;42.012;24.870;2024-02-28T11:08:55;99536.91;;;17.99;44.91
46412;BME280;32113;42.012;24.870;2024-02-28T11:11:22;99538.38;;;18.08;44.84
46412;BME280;32113;42.012;24.870;2024-02-28T11:13:58;99531.41;;;18.10;45.15
46412;BME280;32113;42.012;24.870;2024-02-28T11:16:31;99518.59;;;18.29;44.43
46412;BME280;32113;42.012;24.870;2024-02-28T11:18:58;99521.84;;;18.36;44.55
46412;BME280;32113;42.012;24.870;2024-02-28T11:21:25;99516.31;;;18.45;44.14
46412;BME280;32113;42.012;24.870;2024-02-28T11:23:51;99513.03;;;18.40;44.39
46412;BME280;32113;42.012;24.870;2024-02-28T11:26:16;99512.03;;;18.44;44.14
46412;BME280;32113;42.012;24.870;2024-02-28T11:28:43;99511.94;;;18.22;44.54
46412;BME280;32113;42.012;24.870;2024-02-28T11:31:09;99503.56;;;18.14;45.01
46412;BME280;32113;42.012;24.870;2024-02-28T11:33:35;99496.38;;;17.95;45.35
46412;BME280;32113;42.012;24.870;2024-02-28T11:36:01;99497.13;;;17.98;45.16
46412;BME280;32113;42.012;24.870;2024-02-28T11:38:28;99496.06;;;18.04;44.90
46412;BME280;32113;42.012;24.870;2024-02-28T11:40:54;99490.81;;;18.06;45.15
46412;BME280;32113;42.012;24.870;2024-02-28T11:43:22;99487.56;;;18.26;45.21
46412;BME280;32113;42.012;24.870;2024-02-28T11:45:48;99487.78;;;18.44;44.74
46412;BME280;32113;42.012;24.870;2024-02-28T11:48:14;99479.50;;;18.58;44.41
46412;BME280;32113;42.012;24.870;2024-02-28T11:50:40;99481.31;;;18.80;44.15
46412;BME280;32113;42.012;24.870;2024-02-28T11:53:07;99475.47;;;18.97;43.51
46412;BME280;32113;42.012;24.870;2024-02-28T11:55:33;99472.88;;;18.97;43.02
46412;BME280;32113;42.012;24.870;2024-02-28T11:57:58;99463.38;;;18.96;42.67
46412;BME280;32113;42.012;24.870;2024-02-28T12:00:24;99466.22;;;18.89;42.88
46412;BME280;32113;42.012;24.870;2024-02-28T12:02:49;99458.06;;;18.99;42.83
46412;BME280;32113;42.012;24.870;2024-02-28T12:05:14;99459.25;;;19.14;42.64
46412;BME280;32113;42.012;24.870;2024-02-28T12:07:41;99457.91;;;19.26;42.55
46412;BME280;32113;42.012;24.870;2024-02-28T12:10:08;99460.53;;;19.26;42.09
46412;BME280;32113;42.012;24.870;2024-02-28T12:12:34;99452.88;;;19.21;42.21
46412;BME280;32113;42.012;24.870;2024-02-28T12:15:00;99456.59;;;19.15;42.27
46412;BME280;32113;42.012;24.870;2024-02-28T12:17:26;99452.22;;;19.16;42.13
46412;BME280;32113;42.012;24.870;2024-02-28T12:19:52;99446.19;;;19.15;42.62
46412;BME280;32113;42.012;24.870;2024-02-28T12:22:18;99447.56;;;19.24;42.43
46412;BME280;32113;42.012;24.870;2024-02-28T12:24:43;99440.31;;;19.33;42.36
46412;BME280;32113;42.012;24.870;2024-02-28T12:27:09;99444.47;;;19.37;42.30
46412;BME280;32113;42.012;24.870;2024-02-28T12:29:34;99442.28;;;19.48;41.71
46412;BME280;32113;42.012;24.870;2024-02-28T12:32:00;99439.94;;;19.63;41.78
46412;BME280;32113;42.012;24.870;2024-02-28T12:34:25;99436.13;;;19.72;41.60
46412;BME280;32113;42.012;24.870;2024-02-28T12:36:52;99428.06;;;19.78;41.69
46412;BME280;32113;42.012;24.870;2024-02-28T12:39:17;99425.31;;;19.81;41.39
46412;BME280;32113;42.012;24.870;2024-02-28T12:41:42;99427.53;;;19.69;41.33
46412;BME280;32113;42.012;24.870;2024-02-28T12:44:08;99421.94;;;19.58;41.32
46412;BME280;32113;42.012;24.870;2024-02-28T12:46:35;99417.72;;;19.55;41.55